Passos, Brazil
Current Conditions -  °F | °C
As of 10:00 AM on Tuesday 21 Oct 2014 (Local Time) from SBRP Reporting Station
Clear Clear  
Wind Chill: 79°   Ceiling: Unl
Heat Index: 80°   Visibility: 6mi
Dew Point: 61°   Wind: 12mph
Humidity: 54%   Direction: 110°ESE
Pressure: 30.03"   Gusts: NA
Location:  20.72°S, 46.61°W
Report Text: SBRP 211200Z 11010KT CAVOK 26/16 Q1017
Loading
Personal Weather Stations






























Interactive Weather Map
Tropical Storm Tracking
New forecast layout! Learn more

10-Day Weather Forecast

Advertisements
Track Severe Weather on mobile